Time;durP1;ratioP1;P1;durP2;ratioP2;P2;SDS_P1;SDS_P2;PMS_P1;PMS_P2;Temp;Humidity;BMP_temperature;BMP_pressure;BME280_temperature;BME280_humidity;BME280_pressure;Samples;Min_cycle;Max_cycle;Signal;HPM_P1;HPM_P2
2022/04/25 00:02:01;;;;;;;14.50;7.63;;;8.50;99.90;;;;;;5081966;28;20040;-47
2022/04/25 00:04:45;;;;;;;15.30;9.13;;;8.40;99.90;;;;;;5073787;28;20036;-49
2022/04/25 00:07:13;;;;;;;16.58;9.70;;;8.40;99.90;;;;;;5072903;28;20411;-48
2022/04/25 00:09:45;;;;;;;16.30;9.13;;;8.50;99.90;;;;;;5071608;28;20101;-48
2022/04/25 00:12:16;;;;;;;17.13;9.02;;;8.40;99.90;;;;;;5080889;28;20108;-48
2022/04/25 00:15:01;;;;;;;14.90;9.13;;;8.40;99.90;;;;;;5081272;28;20044;-51
2022/04/25 00:17:45;;;;;;;17.55;10.32;;;8.50;99.90;;;;;;5085396;28;20043;-50
2022/04/25 00:20:16;;;;;;;18.20;9.75;;;8.50;99.90;;;;;;5083088;28;20112;-51
2022/04/25 00:22:46;;;;;;;15.90;9.32;;;8.50;99.90;;;;;;5088704;28;20040;-52
2022/04/25 00:25:16;;;;;;;;;;;8.50;99.90;;;;;;5075401;28;20042;-48
2022/04/25 00:27:48;;;;;;;22.83;9.75;;;8.50;99.90;;;;;;5087527;28;19920;-49
2022/04/25 00:30:16;;;;;;;15.77;10.45;;;8.50;99.90;;;;;;5081033;28;20098;-50
2022/04/25 00:32:55;;;;;;;20.10;10.10;;;8.50;99.90;;;;;;5076515;28;20048;-50
2022/04/25 00:35:25;;;;;;;17.17;10.00;;;8.50;99.90;;;;;;5081189;28;20036;-51
2022/04/25 00:37:57;;;;;;;17.95;10.18;;;8.50;99.90;;;;;;5073145;28;20576;-51
2022/04/25 00:40:24;;;;;;;17.42;10.07;;;8.50;99.90;;;;;;5091609;28;20035;-50
2022/04/25 00:42:52;;;;;;;19.98;11.10;;;8.50;99.90;;;;;;5089298;28;20067;-49
2022/04/25 00:45:42;;;;;;;22.33;10.18;;;8.50;99.90;;;;;;5077197;28;20567;-51
2022/04/25 00:48:08;;;;;;;18.48;10.77;;;8.50;99.90;;;;;;5078467;28;20643;-49
2022/04/25 00:50:33;;;;;;;18.02;11.20;;;8.50;99.90;;;;;;5091931;22;20143;-46
2022/04/25 00:52:59;;;;;;;18.55;10.70;;;8.40;99.90;;;;;;5088838;28;20393;-46
2022/04/25 00:55:25;;;;;;;18.08;10.32;;;8.40;99.90;;;;;;5086881;28;20082;-46
2022/04/25 00:57:56;;;;;;;20.42;11.02;;;8.40;99.90;;;;;;5096498;28;20097;-47
2022/04/25 01:00:22;;;;;;;16.60;9.63;;;8.50;99.90;;;;;;5060612;28;20406;-47
2022/04/25 01:02:48;;;;;;;19.33;10.63;;;8.50;99.90;;;;;;5066868;28;20041;-49
2022/04/25 01:05:13;;;;;;;17.25;10.50;;;8.70;99.90;;;;;;5075354;28;20512;-46
2022/04/25 01:07:39;;;;;;;20.30;10.90;;;8.60;99.90;;;;;;5079806;28;20046;-47
2022/04/25 01:10:06;;;;;;;17.30;11.18;;;8.50;99.90;;;;;;5069797;28;20079;-46
2022/04/25 01:12:32;;;;;;;20.20;11.98;;;8.50;99.90;;;;;;5066752;28;20032;-46
2022/04/25 01:15:07;;;;;;;24.27;11.18;;;8.50;99.90;;;;;;5080085;28;20493;-46
2022/04/25 01:17:33;;;;;;;20.48;11.90;;;8.40;99.90;;;;;;5083988;28;20485;-46
2022/04/25 01:19:59;;;;;;;19.30;11.18;;;8.50;99.90;;;;;;5067515;28;20111;-48
2022/04/25 01:22:56;;;;;;;23.25;11.98;;;8.50;99.90;;;;;;5069148;28;20044;-48
2022/04/25 01:28:06;;;;;;;19.92;12.70;;;8.40;99.90;;;;;;5069790;28;20558;-47
2022/04/25 01:30:32;;;;;;;25.63;13.20;;;8.40;99.90;;;;;;5069149;28;20115;-47
2022/04/25 01:32:58;;;;;;;23.27;13.05;;;8.40;99.90;;;;;;5073401;28;20111;-46
2022/04/25 01:35:24;;;;;;;25.85;13.32;;;8.40;99.90;;;;;;5074074;28;20101;-46
2022/04/25 01:37:50;;;;;;;22.02;11.13;;;8.40;99.90;;;;;;5072393;28;20033;-47
2022/04/25 01:40:15;;;;;;;21.58;13.00;;;8.40;99.90;;;;;;5053106;28;20037;-46
2022/04/25 01:42:42;;;;;;;22.33;13.70;;;8.30;99.90;;;;;;5066239;28;20451;-48
2022/04/25 01:45:08;;;;;;;23.08;13.48;;;8.30;99.90;;;;;;5067326;28;20029;-47
2022/04/25 01:47:33;;;;;;;23.88;13.65;;;8.30;99.90;;;;;;5072617;28;20074;-48
2022/04/25 01:49:59;;;;;;;23.55;13.77;;;8.30;99.90;;;;;;5072963;28;20040;-49
2022/04/25 01:52:29;;;;;;;21.73;13.77;;;8.30;99.90;;;;;;5054359;28;20068;-47
2022/04/25 01:54:55;;;;;;;18.83;12.52;;;8.30;99.90;;;;;;5062413;28;20485;-46
2022/04/25 01:57:21;;;;;;;25.00;13.50;;;8.30;99.90;;;;;;5065635;28;20029;-46
2022/04/25 01:59:47;;;;;;;22.92;14.10;;;8.30;99.90;;;;;;5036169;28;20162;-46
2022/04/25 02:02:14;;;;;;;22.02;12.85;;;8.30;99.90;;;;;;5056189;28;20477;-46
2022/04/25 02:04:40;;;;;;;23.08;13.40;;;8.30;99.90;;;;;;5073400;28;20127;-46
2022/04/25 02:07:07;;;;;;;21.58;13.27;;;8.20;99.90;;;;;;5054815;28;20110;-49
2022/04/25 02:09:34;;;;;;;23.67;14.93;;;8.30;99.90;;;;;;5073525;28;20486;-47
2022/04/25 02:11:59;;;;;;;23.58;14.25;;;8.30;99.90;;;;;;5074311;28;20024;-46
2022/04/25 02:14:25;;;;;;;24.05;15.27;;;8.20;99.90;;;;;;5065556;28;20033;-46
2022/04/25 02:16:51;;;;;;;22.73;13.68;;;8.20;99.90;;;;;;5073129;28;20035;-46
2022/04/25 02:19:16;;;;;;;25.73;15.10;;;8.20;99.90;;;;;;5043773;28;20518;-47
2022/04/25 02:21:42;;;;;;;28.30;15.90;;;8.20;99.90;;;;;;5061815;28;20123;-46
2022/04/25 02:24:07;;;;;;;26.45;15.43;;;8.20;99.90;;;;;;5073554;28;20033;-46
2022/04/25 02:26:33;;;;;;;26.25;17.00;;;8.20;99.90;;;;;;5076777;28;20040;-46
2022/04/25 02:28:59;;;;;;;27.75;16.02;;;8.20;99.90;;;;;;5064028;28;20029;-47
2022/04/25 02:31:25;;;;;;;30.67;16.73;;;8.20;99.90;;;;;;5019393;28;20041;-47
2022/04/25 02:33:51;;;;;;;25.40;14.15;;;8.20;99.90;;;;;;5052084;28;20037;-47
2022/04/25 02:36:17;;;;;;;31.00;17.23;;;8.20;99.90;;;;;;5072354;28;20090;-48
2022/04/25 02:38:42;;;;;;;25.02;16.38;;;8.20;99.90;;;;;;5058369;28;20049;-48
2022/04/25 02:41:11;;;;;;;26.92;16.30;;;8.20;99.90;;;;;;5077525;28;20788;-46
2022/04/25 02:43:42;;;;;;;30.02;16.75;;;8.20;99.90;;;;;;5065197;28;20412;-48
2022/04/25 02:46:10;;;;;;;30.52;17.58;;;8.20;99.90;;;;;;5069527;28;20036;-47
2022/04/25 02:48:36;;;;;;;31.35;16.25;;;8.10;99.90;;;;;;5072760;28;20076;-46
2022/04/25 02:51:07;;;;;;;26.00;15.82;;;8.20;99.90;;;;;;5073027;28;20123;-47
2022/04/25 02:53:32;;;;;;;26.92;15.95;;;8.30;99.90;;;;;;5073133;28;20048;-49
2022/04/25 02:55:58;;;;;;;26.20;16.90;;;8.20;99.90;;;;;;5071645;28;20370;-48
2022/04/25 02:58:25;;;;;;;24.73;15.50;;;8.20;99.90;;;;;;5059978;28;20036;-49
2022/04/25 03:00:51;;;;;;;25.95;16.25;;;8.30;99.90;;;;;;5075818;28;20036;-47
2022/04/25 03:03:19;;;;;;;27.20;15.75;;;8.10;99.90;;;;;;5067358;28;20040;-49
2022/04/25 03:05:47;;;;;;;25.08;14.65;;;8.20;99.90;;;;;;5070655;28;20037;-47
2022/04/25 03:08:14;;;;;;;26.67;16.67;;;8.20;99.90;;;;;;5064564;28;20037;-48
2022/04/25 03:10:42;;;;;;;22.35;14.98;;;8.10;99.90;;;;;;5055034;28;20049;-47
2022/04/25 03:13:09;;;;;;;26.42;15.18;;;8.10;99.90;;;;;;5072505;28;20509;-48
2022/04/25 03:15:38;;;;;;;29.52;16.23;;;8.00;99.90;;;;;;5071942;28;20406;-47
2022/04/25 03:18:04;;;;;;;26.95;14.40;;;7.90;99.90;;;;;;5077472;28;20048;-50
2022/04/25 03:20:31;;;;;;;28.75;15.70;;;8.00;99.90;;;;;;5064432;28;20040;-46
2022/04/25 03:22:57;;;;;;;25.38;14.30;;;8.00;99.90;;;;;;5071560;28;20068;-47
2022/04/25 03:25:23;;;;;;;19.20;9.75;;;8.10;99.90;;;;;;5073842;28;20043;-47
2022/04/25 03:27:49;;;;;;;23.30;13.15;;;8.10;99.90;;;;;;5074910;28;20402;-46
2022/04/25 03:30:14;;;;;;;22.33;13.55;;;8.00;99.90;;;;;;5051877;28;20049;-49
2022/04/25 03:32:47;;;;;;;23.85;14.48;;;8.00;99.90;;;;;;5072316;28;20493;-50
2022/04/25 03:35:13;;;;;;;23.50;13.45;;;7.90;99.90;;;;;;5037404;28;20472;-49
2022/04/25 03:37:39;;;;;;;23.08;11.38;;;7.90;99.90;;;;;;5029686;28;20409;-49
2022/04/25 03:40:06;;;;;;;28.10;14.15;;;7.90;99.90;;;;;;5072107;28;20032;-47
2022/04/25 03:42:34;;;;;;;26.95;15.68;;;8.00;99.90;;;;;;5063978;28;20131;-49
2022/04/25 03:45:00;;;;;;;25.25;14.10;;;7.90;99.90;;;;;;5070325;28;20036;-50
2022/04/25 03:47:28;;;;;;;20.75;11.20;;;7.90;99.90;;;;;;5045708;28;20045;-47
2022/04/25 03:49:53;;;;;;;32.53;16.00;;;7.90;99.90;;;;;;5054101;28;20128;-49
2022/04/25 03:52:19;;;;;;;24.77;14.40;;;7.80;99.90;;;;;;5071584;28;20119;-48
2022/04/25 03:57:29;;;;;;;23.85;12.15;;;7.80;99.90;;;;;;5061007;28;20403;-48
2022/04/25 03:59:55;;;;;;;31.38;14.77;;;7.90;99.90;;;;;;5071843;28;20085;-50
2022/04/25 04:02:21;;;;;;;28.25;14.73;;;7.80;99.90;;;;;;5054261;28;20045;-48
2022/04/25 04:04:47;;;;;;;25.90;12.18;;;7.70;99.90;;;;;;5070912;28;20082;-47
2022/04/25 04:07:13;;;;;;;28.80;15.00;;;7.80;99.90;;;;;;5068188;28;20048;-48
2022/04/25 04:09:45;;;;;;;33.70;14.55;;;7.70;99.90;;;;;;5022557;28;20040;-49
2022/04/25 04:12:11;;;;;;;28.55;15.23;;;7.80;99.90;;;;;;5065564;28;20033;-46
2022/04/25 04:14:37;;;;;;;27.73;13.90;;;7.70;99.90;;;;;;5071257;28;20063;-47
2022/04/25 04:17:06;;;;;;;29.83;14.55;;;7.70;99.90;;;;;;5069950;28;20036;-47
2022/04/25 04:19:32;;;;;;;21.83;13.23;;;7.80;99.90;;;;;;5051425;28;20502;-47
2022/04/25 04:21:57;;;;;;;26.95;14.30;;;7.70;99.90;;;;;;5061788;28;20048;-48
2022/04/25 04:24:23;;;;;;;21.33;12.40;;;7.80;99.90;;;;;;5071885;28;20032;-47
2022/04/25 04:26:48;;;;;;;24.45;15.10;;;7.80;99.90;;;;;;5067827;28;20032;-47
2022/04/25 04:29:14;;;;;;;29.73;14.48;;;7.70;99.90;;;;;;5071633;28;20789;-47
2022/04/25 04:31:39;;;;;;;23.23;12.65;;;7.70;99.90;;;;;;5077310;28;20040;-47
2022/04/25 04:34:05;;;;;;;29.65;15.15;;;7.70;99.90;;;;;;5062342;28;20093;-46
2022/04/25 04:36:30;;;;;;;26.90;14.13;;;7.70;99.90;;;;;;5070243;28;20039;-46
2022/04/25 04:38:56;;;;;;;24.90;13.70;;;7.70;99.90;;;;;;5069241;28;20036;-46
2022/04/25 04:41:22;;;;;;;25.92;14.45;;;7.80;99.90;;;;;;5065672;28;20033;-46
2022/04/25 04:43:48;;;;;;;27.02;13.52;;;7.70;99.90;;;;;;5069384;28;20036;-48
2022/04/25 04:46:14;;;;;;;26.20;14.02;;;7.90;99.90;;;;;;5066491;28;20455;-46
2022/04/25 04:48:39;;;;;;;29.30;14.10;;;7.80;99.90;;;;;;5064990;28;20043;-46
2022/04/25 04:51:05;;;;;;;28.48;14.48;;;7.80;99.90;;;;;;5071914;28;20040;-46
2022/04/25 04:53:30;;;;;;;24.55;13.73;;;7.80;99.90;;;;;;5077139;28;20043;-47
2022/04/25 04:55:56;;;;;;;27.65;14.32;;;7.80;99.90;;;;;;5062643;28;20424;-47
2022/04/25 04:58:22;;;;;;;24.17;13.95;;;7.80;99.90;;;;;;5045765;28;20044;-46
2022/04/25 05:00:48;;;;;;;24.83;13.23;;;7.80;99.90;;;;;;5055546;28;20029;-46
2022/04/25 05:03:15;;;;;;;21.33;13.75;;;7.80;99.90;;;;;;5077885;28;20043;-46
2022/04/25 05:05:41;;;;;;;23.00;12.68;;;7.80;99.90;;;;;;5041453;28;20045;-49
2022/04/25 05:08:07;;;;;;;25.10;14.77;;;7.80;99.90;;;;;;5067679;28;20120;-47
2022/04/25 05:10:32;;;;;;;22.00;13.07;;;7.80;99.90;;;;;;5064854;28;20119;-49
2022/04/25 05:12:58;;;;;;;20.88;12.43;;;7.80;99.90;;;;;;5081993;28;20455;-46
2022/04/25 05:15:24;;;;;;;26.23;14.18;;;7.80;99.90;;;;;;5062768;28;20079;-46
2022/04/25 05:17:52;;;;;;;26.27;14.05;;;7.80;99.90;;;;;;5070203;28;20040;-47
2022/04/25 05:20:22;;;;;;;29.50;13.43;;;7.80;99.90;;;;;;5070924;28;20032;-47
2022/04/25 05:22:48;;;;;;;26.02;14.43;;;7.80;99.90;;;;;;5065373;28;20051;-46
2022/04/25 05:25:19;;;;;;;21.80;13.23;;;7.70;99.90;;;;;;5061033;28;20036;-46
2022/04/25 05:27:47;;;;;;;23.63;13.77;;;7.80;99.90;;;;;;5058242;28;20044;-47
2022/04/25 05:30:14;;;;;;;26.77;14.20;;;7.70;99.90;;;;;;5056675;28;20068;-46
2022/04/25 05:32:44;;;;;;;24.35;13.63;;;7.70;99.90;;;;;;5062930;28;20094;-47
2022/04/25 05:35:10;;;;;;;22.55;13.48;;;7.70;99.90;;;;;;5045262;28;20079;-47
2022/04/25 05:37:36;;;;;;;26.40;13.40;;;7.70;99.90;;;;;;5067522;28;20116;-48
2022/04/25 05:40:02;;;;;;;21.30;13.50;;;7.80;99.90;;;;;;5039340;28;20045;-48
2022/04/25 05:42:28;;;;;;;23.75;12.68;;;7.80;99.90;;;;;;5061676;28;20047;-47
2022/04/25 05:44:54;;;;;;;23.75;13.20;;;7.80;99.90;;;;;;5074012;28;20281;-48
2022/04/25 05:47:19;;;;;;;24.77;13.35;;;7.80;99.90;;;;;;5073909;28;20041;-47
2022/04/25 05:52:29;;;;;;;24.50;12.88;;;7.90;99.90;;;;;;5072388;28;20063;-47
2022/04/25 05:54:54;;;;;;;23.33;12.63;;;7.80;99.90;;;;;;5065262;28;20499;-47
2022/04/25 05:57:20;;;;;;;22.38;12.73;;;7.90;99.90;;;;;;5053610;28;20032;-47
2022/04/25 05:59:45;;;;;;;25.20;12.50;;;7.90;99.90;;;;;;5054200;28;20044;-47
2022/04/25 06:02:11;;;;;;;18.60;11.90;;;8.00;99.90;;;;;;5058603;28;20439;-47
2022/04/25 06:04:36;;;;;;;22.88;12.73;;;8.00;99.90;;;;;;5065451;28;20383;-47
2022/04/25 06:07:04;;;;;;;21.88;12.60;;;8.10;99.90;;;;;;5053089;28;20079;-50
2022/04/25 06:09:30;;;;;;;21.88;12.82;;;8.00;99.90;;;;;;5035504;28;20460;-49
2022/04/25 06:11:55;;;;;;;21.58;11.93;;;8.00;99.90;;;;;;5055534;28;20163;-47
2022/04/25 06:14:21;;;;;;;24.55;13.88;;;8.00;99.90;;;;;;5036043;28;20029;-47
2022/04/25 06:16:47;;;;;;;21.65;12.13;;;8.00;99.90;;;;;;5056076;28;20398;-47
2022/04/25 06:19:12;;;;;;;23.25;12.68;;;8.10;99.90;;;;;;5061543;28;20036;-47
2022/04/25 06:21:38;;;;;;;22.23;12.77;;;8.10;99.90;;;;;;5061607;28;20649;-48
2022/04/25 06:24:04;;;;;;;20.00;12.10;;;8.20;99.90;;;;;;5064497;28;20125;-47
2022/04/25 06:26:30;;;;;;;22.88;12.05;;;8.20;99.90;;;;;;5057627;28;20460;-47
2022/04/25 06:28:56;;;;;;;23.42;11.30;;;8.30;99.90;;;;;;5064371;28;20044;-48
2022/04/25 06:31:23;;;;;;;22.40;11.88;;;8.30;99.90;;;;;;5061428;28;20037;-47
2022/04/25 06:33:48;;;;;;;27.13;12.68;;;8.40;99.90;;;;;;5060853;28;20114;-48
2022/04/25 06:36:14;;;;;;;20.08;12.15;;;8.30;99.90;;;;;;5058185;28;20497;-47
2022/04/25 06:38:39;;;;;;;20.98;11.70;;;8.30;99.90;;;;;;5063685;28;20037;-47
2022/04/25 06:41:07;;;;;;;21.35;11.57;;;8.30;99.90;;;;;;5066953;28;20033;-50
2022/04/25 06:43:32;;;;;;;24.00;12.27;;;8.30;99.90;;;;;;5065030;28;20037;-48
2022/04/25 06:45:58;;;;;;;23.58;12.45;;;8.30;99.90;;;;;;5062691;28;20559;-47
2022/04/25 06:48:24;;;;;;;18.95;11.65;;;8.20;99.90;;;;;;5073023;28;20089;-47
2022/04/25 06:50:50;;;;;;;27.08;13.07;;;8.20;99.90;;;;;;5101640;22;20040;-47
2022/04/25 06:53:15;;;;;;;24.70;13.18;;;8.30;99.90;;;;;;5098957;28;20397;-48
2022/04/25 06:55:41;;;;;;;19.75;11.48;;;8.30;99.90;;;;;;5090564;28;20035;-47
2022/04/25 06:58:06;;;;;;;20.05;12.73;;;8.40;99.90;;;;;;5083910;28;20039;-48
2022/04/25 07:00:33;;;;;;;23.60;12.13;;;8.30;99.90;;;;;;5085128;28;20054;-51
2022/04/25 07:02:59;;;;;;;24.83;13.23;;;8.40;99.90;;;;;;5080879;28;20056;-48
2022/04/25 07:05:25;;;;;;;25.13;13.20;;;8.40;99.90;;;;;;5076043;28;20067;-48
2022/04/25 07:07:51;;;;;;;20.27;12.73;;;8.40;99.90;;;;;;5082678;28;20113;-48
2022/04/25 07:10:17;;;;;;;22.83;13.70;;;8.40;99.90;;;;;;5081008;28;20041;-47
2022/04/25 07:12:43;;;;;;;27.33;12.82;;;8.40;99.90;;;;;;5073171;28;20086;-47
2022/04/25 07:15:09;;;;;;;29.55;14.73;;;8.50;99.90;;;;;;5072804;28;20048;-49
2022/04/25 07:17:34;;;;;;;25.75;13.57;;;8.50;99.90;;;;;;5079629;28;20036;-48
2022/04/25 07:20:00;;;;;;;26.55;15.60;;;8.50;99.90;;;;;;5082734;28;20044;-47
2022/04/25 07:30:38;;;;;;;24.55;14.50;;;8.40;99.90;;;;;;5089066;28;20047;-47
2022/04/25 07:33:04;;;;;;;26.58;14.43;;;8.50;99.90;;;;;;5074226;28;20040;-49
2022/04/25 07:35:30;;;;;;;28.25;15.05;;;8.50;99.90;;;;;;5072517;28;20047;-48
2022/04/25 07:37:56;;;;;;;24.27;13.68;;;8.50;99.90;;;;;;5076915;28;20028;-47
2022/04/25 07:40:22;;;;;;;22.23;12.98;;;8.60;99.90;;;;;;5088059;28;20159;-47
2022/04/25 07:42:48;;;;;;;23.30;14.18;;;8.60;99.90;;;;;;5072560;28;20032;-47
2022/04/25 07:45:14;;;;;;;22.42;14.02;;;8.50;99.90;;;;;;5072509;28;20039;-48
2022/04/25 07:47:42;;;;;;;24.02;14.52;;;8.60;99.90;;;;;;5076156;28;20028;-47
2022/04/25 07:50:09;;;;;;;22.90;13.38;;;8.50;99.90;;;;;;5089660;28;20490;-47
2022/04/25 07:52:35;;;;;;;28.95;14.77;;;8.70;99.90;;;;;;5072270;28;20097;-50
2022/04/25 07:55:01;;;;;;;24.73;13.15;;;8.60;99.90;;;;;;5082495;28;20039;-48
2022/04/25 07:57:26;;;;;;;23.20;13.93;;;8.60;99.90;;;;;;5078622;28;20188;-50
2022/04/25 07:59:52;;;;;;;21.92;14.02;;;8.60;99.90;;;;;;5072124;28;20045;-48
2022/04/25 08:02:17;;;;;;;21.10;12.63;;;8.60;99.90;;;;;;5072184;28;20091;-49
2022/04/25 08:04:45;;;;;;;21.95;11.98;;;8.70;99.90;;;;;;5079927;28;20032;-48
2022/04/25 08:07:11;;;;;;;22.70;13.23;;;8.70;99.90;;;;;;5081019;28;20048;-50
2022/04/25 08:09:37;;;;;;;21.50;14.57;;;8.70;99.90;;;;;;5080675;28;20044;-48
2022/04/25 08:20:15;;;;;;;24.15;15.35;;;8.50;99.90;;;;;;5091434;28;20055;-48
2022/04/25 08:22:41;;;;;;;27.20;15.43;;;8.40;99.90;;;;;;5083461;28;20115;-51
2022/04/25 08:25:08;;;;;;;26.75;14.80;;;8.40;99.90;;;;;;5088640;28;20039;-49
2022/04/25 08:27:34;;;;;;;21.48;14.13;;;8.30;99.90;;;;;;5085859;28;20148;-51
2022/04/25 08:30:00;;;;;;;22.30;14.63;;;8.20;99.90;;;;;;5089909;28;20531;-48
2022/04/25 08:32:26;;;;;;;26.30;15.30;;;8.20;99.90;;;;;;5091604;28;20036;-50
2022/04/25 08:34:51;;;;;;;23.98;15.07;;;8.20;99.90;;;;;;5091830;28;20101;-50
2022/04/25 08:37:17;;;;;;;23.83;13.38;;;8.10;99.90;;;;;;5091648;28;20088;-51
2022/04/25 08:39:42;;;;;;;26.13;13.75;;;8.10;99.90;;;;;;5090371;28;20036;-52
2022/04/25 08:42:09;;;;;;;25.25;14.02;;;8.10;99.90;;;;;;5088070;28;20043;-51
2022/04/25 08:44:36;;;;;;;23.20;14.15;;;8.10;99.90;;;;;;5071457;28;20112;-52
2022/04/25 08:47:03;;;;;;;22.67;13.77;;;8.10;99.90;;;;;;5071463;28;20511;-51
2022/04/25 08:49:28;;;;;;;17.00;12.18;;;8.10;99.90;;;;;;5073663;28;20067;-48
2022/04/25 08:51:58;;;;;;;22.13;13.52;;;8.20;99.90;;;;;;5090366;28;20121;-49
2022/04/25 08:54:31;;;;;;;20.75;13.95;;;8.10;99.90;;;;;;5086980;28;20086;-51
2022/04/25 08:56:59;;;;;;;24.98;14.43;;;8.20;99.90;;;;;;5081684;28;20117;-51
2022/04/25 08:59:26;;;;;;;23.00;13.13;;;8.10;99.90;;;;;;5083196;28;20042;-48
2022/04/25 09:01:52;;;;;;;23.92;13.55;;;8.20;99.90;;;;;;5090938;28;20046;-53
2022/04/25 09:04:17;;;;;;;23.42;13.80;;;8.20;99.90;;;;;;5071433;28;20545;-50
2022/04/25 09:06:43;;;;;;;24.50;12.75;;;8.20;99.90;;;;;;5070284;28;20102;-50
2022/04/25 09:09:09;;;;;;;24.85;13.88;;;8.10;99.90;;;;;;5069847;28;20036;-52
2022/04/25 09:14:21;;;;;;;23.00;13.73;;;8.20;99.90;;;;;;5082355;28;20047;-49
2022/04/25 09:16:47;;;;;;;23.10;13.95;;;8.20;99.90;;;;;;5091531;28;20469;-48
2022/04/25 09:19:14;;;;;;;30.30;15.25;;;8.10;99.90;;;;;;5088402;28;20115;-51
2022/04/25 09:21:44;;;;;;;25.65;14.35;;;8.10;99.90;;;;;;5093400;28;20043;-48
2022/04/25 09:24:44;;;;;;;25.25;14.55;;;8.10;99.90;;;;;;5075865;28;20387;-50
2022/04/25 09:27:18;;;;;;;30.40;15.35;;;8.20;99.90;;;;;;5063591;28;20498;-48
2022/04/25 09:29:46;;;;;;;26.58;16.27;;;8.30;99.90;;;;;;5078635;28;20039;-51
2022/04/25 09:32:13;;;;;;;28.08;16.38;;;8.20;99.90;;;;;;5092171;28;20048;-50
2022/04/25 09:37:41;;;;;;;31.45;15.70;;;8.10;99.90;;;;;;5082976;28;20051;-48
2022/04/25 09:40:07;;;;;;;33.13;16.08;;;8.20;99.90;;;;;;5081257;28;20040;-50
2022/04/25 09:42:33;;;;;;;32.22;16.60;;;8.20;99.90;;;;;;5085276;28;20036;-48
2022/04/25 09:45:01;;;;;;;29.17;16.70;;;8.20;99.90;;;;;;5095013;28;20081;-51
2022/04/25 09:47:34;;;;;;;31.75;18.10;;;8.20;99.90;;;;;;5094509;28;20032;-48
2022/04/25 09:50:03;;;;;;;32.28;17.73;;;8.20;99.90;;;;;;5093592;28;20389;-48
2022/04/25 09:52:30;;;;;;;27.15;16.70;;;8.30;99.90;;;;;;5089577;28;20058;-49
2022/04/25 09:54:58;;;;;;;29.55;17.20;;;8.20;99.90;;;;;;5074561;28;20108;-50
2022/04/25 09:57:30;;;;;;;28.73;16.25;;;8.30;99.90;;;;;;5074170;28;20040;-51
2022/04/25 09:59:56;;;;;;;26.75;16.10;;;8.40;99.90;;;;;;5077770;28;20062;-48
2022/04/25 10:02:22;;;;;;;28.73;14.82;;;8.50;99.90;;;;;;5091653;28;20122;-50
2022/04/25 10:04:48;;;;;;;30.80;16.65;;;8.40;99.90;;;;;;5083460;28;20036;-50
2022/04/25 10:07:14;;;;;;;27.20;14.77;;;8.50;99.90;;;;;;5085495;28;20044;-50
2022/04/25 10:09:43;;;;;;;28.95;17.38;;;8.50;99.90;;;;;;5094264;28;20094;-50
2022/04/25 10:12:09;;;;;;;24.52;13.13;;;8.60;99.90;;;;;;5094480;28;20051;-51
2022/04/25 10:14:36;;;;;;;26.85;16.80;;;8.60;99.90;;;;;;5094595;28;20482;-50
2022/04/25 10:17:02;;;;;;;30.90;17.73;;;8.60;99.90;;;;;;5093099;28;20040;-51
2022/04/25 10:19:29;;;;;;;26.17;15.88;;;8.50;99.90;;;;;;5093190;28;20039;-51
2022/04/25 10:21:56;;;;;;;26.35;15.57;;;8.70;99.90;;;;;;5075456;28;20045;-49
2022/04/25 10:24:22;;;;;;;24.15;13.60;;;8.60;99.90;;;;;;5073953;28;20033;-49
2022/04/25 10:26:49;;;;;;;23.77;14.32;;;8.80;99.90;;;;;;5074133;28;20115;-50
2022/04/25 10:29:31;;;;;;;22.95;14.30;;;8.80;99.90;;;;;;5092162;28;20397;-51
2022/04/25 10:31:59;;;;;;;20.47;13.23;;;8.80;99.90;;;;;;5075386;28;20113;-48
2022/04/25 10:34:51;;;;;;;20.33;13.00;;;8.80;99.90;;;;;;5073939;28;20110;-47
2022/04/25 10:37:31;;;;;;;18.65;11.98;;;8.90;99.90;;;;;;5074940;28;20048;-48
2022/04/25 10:39:58;;;;;;;20.83;12.73;;;8.80;99.90;;;;;;5075359;28;21421;-49
2022/04/25 10:45:09;;;;;;;19.33;11.85;;;8.90;99.90;;;;;;5073549;28;20512;-48
2022/04/25 10:47:35;;;;;;;23.73;13.27;;;9.00;99.90;;;;;;5076947;28;20046;-51
2022/04/25 10:50:06;;;;;;;19.70;11.80;;;8.90;99.90;;;;;;5092068;28;20035;-48
2022/04/25 10:52:38;;;;;;;17.17;11.03;;;9.00;99.90;;;;;;5093965;28;20032;-50
2022/04/25 10:55:13;;;;;;;18.83;12.02;;;9.00;99.90;;;;;;5093741;28;20040;-48
2022/04/25 10:58:04;;;;;;;18.27;12.15;;;9.10;99.90;;;;;;5092234;28;20028;-47
2022/04/25 11:00:47;;;;;;;15.95;10.45;;;9.00;99.90;;;;;;5086514;28;20493;-47
2022/04/25 11:03:16;;;;;;;17.23;10.38;;;9.00;99.90;;;;;;5084961;28;20043;-47
2022/04/25 11:05:41;;;;;;;16.38;10.63;;;9.10;99.90;;;;;;5093589;28;20054;-47
2022/04/25 11:08:15;;;;;;;16.38;10.07;;;9.10;99.90;;;;;;5089037;28;20544;-47
2022/04/25 11:10:42;;;;;;;17.80;9.52;;;9.10;99.90;;;;;;5085575;28;20521;-49
2022/04/25 11:13:12;;;;;;;18.00;11.07;;;9.20;99.90;;;;;;5091296;28;20382;-48
2022/04/25 11:15:39;;;;;;;20.40;11.57;;;9.10;99.90;;;;;;5078493;28;20048;-47
2022/04/25 11:18:33;;;;;;;21.70;12.43;;;9.10;99.90;;;;;;5072802;28;20441;-50
2022/04/25 11:21:14;;;;;;;17.40;9.18;;;9.10;99.90;;;;;;5082275;28;20070;-50
2022/04/25 11:23:47;;;;;;;18.67;11.45;;;9.10;99.90;;;;;;5091144;28;20367;-51
2022/04/25 11:26:25;;;;;;;20.73;11.80;;;9.10;99.90;;;;;;5076287;28;20405;-50
2022/04/25 11:29:01;;;;;;;17.02;10.38;;;9.20;99.90;;;;;;5092583;28;20047;-51
2022/04/25 11:31:34;;;;;;;16.65;9.75;;;9.10;99.90;;;;;;5092821;28;20105;-50
2022/04/25 11:34:01;;;;;;;17.20;10.82;;;9.20;99.90;;;;;;5092805;28;20048;-48
2022/04/25 11:36:29;;;;;;;16.25;10.52;;;9.40;99.90;;;;;;5091704;28;20048;-52
2022/04/25 11:41:41;;;;;;;18.58;9.95;;;9.70;99.90;;;;;;5072404;28;20051;-48
2022/04/25 11:44:07;;;;;;;16.45;10.40;;;9.70;99.90;;;;;;5071906;28;20037;-51
2022/04/25 11:46:35;;;;;;;15.30;10.20;;;9.90;99.90;;;;;;5076489;28;20036;-51
2022/04/25 11:49:01;;;;;;;13.43;8.25;;;10.00;99.90;;;;;;5091465;28;20081;-50
2022/04/25 11:51:37;;;;;;;13.85;9.20;;;10.20;99.90;;;;;;5087243;28;20067;-50
2022/04/25 11:54:08;;;;;;;13.55;9.48;;;10.20;99.90;;;;;;5072267;28;20119;-50
2022/04/25 11:56:41;;;;;;;14.02;8.18;;;10.30;99.90;;;;;;5076002;28;20461;-51
2022/04/25 11:59:15;;;;;;;12.15;8.50;;;10.30;99.90;;;;;;5090097;28;20040;-48
2022/04/25 12:01:47;;;;;;;11.98;7.90;;;10.40;99.90;;;;;;5071989;28;20112;-51
2022/04/25 12:04:29;;;;;;;12.95;7.57;;;10.30;99.90;;;;;;5072276;28;20033;-48
2022/04/25 12:07:03;;;;;;;14.55;8.60;;;10.30;99.90;;;;;;5078659;28;20073;-49
2022/04/25 12:15:34;;;;;;;14.80;8.82;;;10.50;99.90;;;;;;5072027;28;20043;-51
2022/04/25 12:15:35;;;;;;;13.25;8.85;;;10.40;99.90;;;;;;5071666;28;20118;-51
2022/04/25 12:18:14;;;;;;;13.05;8.50;;;10.50;99.90;;;;;;5086700;28;20036;-51
2022/04/25 12:20:42;;;;;;;17.08;8.88;;;10.50;99.90;;;;;;5076938;28;20041;-48
2022/04/25 12:23:09;;;;;;;13.18;9.27;;;10.70;99.90;;;;;;5071767;28;20040;-49
2022/04/25 12:25:43;;;;;;;14.38;9.02;;;10.70;99.90;;;;;;5070499;28;20417;-50
2022/04/25 12:28:15;;;;;;;13.93;7.80;;;10.70;99.90;;;;;;5087675;28;20071;-51
2022/04/25 12:31:07;;;;;;;13.38;8.30;;;10.90;99.90;;;;;;5076455;28;20448;-50
2022/04/25 12:33:38;;;;;;;12.93;8.33;;;11.00;99.90;;;;;;5071765;28;20493;-51
2022/04/25 12:36:10;;;;;;;12.98;9.07;;;11.00;99.90;;;;;;5070577;28;20721;-52
2022/04/25 12:38:41;;;;;;;14.07;8.60;;;11.00;99.90;;;;;;5084576;28;20333;-51
2022/04/25 12:41:12;;;;;;;13.95;7.65;;;11.10;99.90;;;;;;5090467;28;20294;-51
2022/04/25 12:43:43;;;;;;;12.20;7.90;;;11.20;99.90;;;;;;5091886;28;20072;-51
2022/04/25 12:46:10;;;;;;;12.93;8.60;;;11.20;99.90;;;;;;5091175;28;20040;-50
2022/04/25 12:48:59;;;;;;;13.45;7.60;;;11.10;99.90;;;;;;5089271;28;20046;-52
2022/04/25 12:51:26;;;;;;;13.32;7.55;;;11.10;99.90;;;;;;5071635;28;20713;-53
2022/04/25 12:53:52;;;;;;;11.88;8.02;;;11.10;99.90;;;;;;5084276;28;20074;-52
2022/04/25 12:56:28;;;;;;;16.70;9.00;;;11.10;99.90;;;;;;5080529;28;20094;-53
2022/04/25 12:58:55;;;;;;;13.10;9.30;;;11.00;99.90;;;;;;5074345;28;20055;-53
2022/04/25 13:01:34;;;;;;;13.68;9.18;;;10.90;99.90;;;;;;5074989;28;20068;-53
2022/04/25 13:04:13;;;;;;;14.60;8.40;;;10.90;99.90;;;;;;5081598;28;20047;-53
2022/04/25 13:06:42;;;;;;;12.80;8.90;;;11.00;99.90;;;;;;5088857;28;20029;-54
2022/04/25 13:09:09;;;;;;;11.00;7.97;;;11.00;99.90;;;;;;5075301;28;20079;-53
2022/04/25 13:11:37;;;;;;;13.65;8.63;;;11.00;99.90;;;;;;5075207;28;20052;-54
2022/04/25 13:14:04;;;;;;;12.95;9.18;;;11.10;99.90;;;;;;5064968;28;20090;-53
2022/04/25 13:16:29;;;;;;;11.77;8.02;;;11.00;99.90;;;;;;5093140;28;20040;-53
2022/04/25 13:18:57;;;;;;;17.65;9.95;;;11.10;99.90;;;;;;5084883;28;20039;-53
2022/04/25 13:21:22;;;;;;;13.63;9.40;;;11.00;99.90;;;;;;5075830;28;20037;-54
2022/04/25 13:23:49;;;;;;;14.30;10.05;;;10.90;99.90;;;;;;5078660;28;20512;-53